createdAt,value
2023-05-14T00:00:50.842Z,48.4
2023-05-14T00:01:52.004Z,48.9
2023-05-14T00:02:52.920Z,49.2
2023-05-14T00:03:53.869Z,49.4
2023-05-14T00:04:54.876Z,49.4
2023-05-14T00:05:55.883Z,49.3
2023-05-14T00:06:56.899Z,49.4
2023-05-14T00:07:57.884Z,49.4
2023-05-14T00:08:58.924Z,49.3
2023-05-14T00:10:00.280Z,49
2023-05-14T00:11:01.062Z,49
2023-05-14T00:12:02.009Z,48.9
2023-05-14T00:13:02.876Z,48.7
2023-05-14T00:14:03.964Z,48.5
2023-05-14T00:15:10.024Z,48.4
2023-05-14T00:16:10.980Z,48.4
2023-05-14T00:17:11.876Z,48.1
2023-05-14T00:18:12.946Z,48.2
2023-05-14T00:19:13.930Z,48.1
2023-05-14T00:20:14.886Z,48
2023-05-14T00:21:15.965Z,47.8
2023-05-14T00:22:16.864Z,47.5
2023-05-14T00:23:17.868Z,47.4
2023-05-14T00:24:18.886Z,47.4
2023-05-14T00:25:19.934Z,47.3
2023-05-14T00:26:20.865Z,47.2
2023-05-14T00:27:22.054Z,47.4
2023-05-14T00:28:22.947Z,47.6
2023-05-14T00:29:23.907Z,47.7
2023-05-14T00:30:25.222Z,47.8
2023-05-14T00:31:25.935Z,47.5
2023-05-14T00:32:26.933Z,48
2023-05-14T00:33:27.904Z,48.4
2023-05-14T00:34:28.914Z,48.8
2023-05-14T00:35:29.864Z,48.6
2023-05-14T00:36:30.886Z,48.5
2023-05-14T00:37:32.025Z,48.3
2023-05-14T00:38:32.929Z,48.1
2023-05-14T00:39:33.907Z,48
2023-05-14T00:40:34.956Z,48
2023-05-14T00:41:35.924Z,48.1
2023-05-14T00:42:36.947Z,47.9
2023-05-14T00:43:37.927Z,47.9
2023-05-14T00:44:38.908Z,47.6
2023-05-14T00:45:39.884Z,48
2023-05-14T00:46:40.961Z,48
2023-05-14T00:47:41.993Z,47.9
2023-05-14T00:48:42.894Z,47.8
2023-05-14T00:49:43.893Z,47.8
2023-05-14T00:50:44.825Z,47.7
2023-05-14T00:51:45.932Z,47.7
2023-05-14T00:52:46.907Z,47.6
2023-05-14T00:53:48.086Z,47.4
2023-05-14T00:54:48.999Z,47.2
2023-05-14T00:55:49.986Z,46.8
2023-05-14T00:56:51.066Z,46.6
2023-05-14T00:57:52.768Z,46.5
2023-05-14T00:58:53.885Z,46.2
2023-05-14T00:59:54.949Z,46.3
2023-05-14T01:00:56.015Z,46.1
2023-05-14T01:01:56.920Z,45.8
2023-05-14T01:02:58.036Z,45.6
2023-05-14T01:03:59.020Z,45.5
2023-05-14T01:05:00.015Z,45.6
2023-05-14T01:06:01.200Z,45.5
2023-05-14T01:07:02.046Z,45.5
2023-05-14T01:08:02.982Z,45.4
2023-05-14T01:09:03.968Z,45.4
2023-05-14T01:10:04.971Z,45.1
2023-05-14T01:11:05.904Z,45.1
2023-05-14T01:12:07.048Z,44.9
2023-05-14T01:13:07.912Z,44.9
2023-05-14T01:14:08.943Z,44.9
2023-05-14T01:15:10.444Z,44.7
2023-05-14T01:16:12.013Z,44.4
2023-05-14T01:17:12.926Z,44.3
2023-05-14T01:18:14.056Z,44.2
2023-05-14T01:19:15.101Z,44
2023-05-14T01:20:15.967Z,43.9
2023-05-14T01:21:17.025Z,43.7
2023-05-14T01:22:17.964Z,43.6
2023-05-14T01:23:18.904Z,43.6
2023-05-14T01:24:19.983Z,43.4
2023-05-14T01:25:20.921Z,43.3
2023-05-14T01:26:22.030Z,43.4
2023-05-14T01:27:22.911Z,43.4
2023-05-14T01:28:23.932Z,43.3
2023-05-14T01:29:24.998Z,43.1
2023-05-14T01:30:26.101Z,42.9
2023-05-14T01:31:27.018Z,42.7
2023-05-14T01:32:27.989Z,42.5
2023-05-14T01:33:28.966Z,42.4
2023-05-14T01:34:29.976Z,42.3
2023-05-14T01:35:30.985Z,42.3
2023-05-14T01:36:31.884Z,42.2
2023-05-14T01:37:32.966Z,42.3
2023-05-14T01:38:33.986Z,42.3
2023-05-14T01:39:35.044Z,42.3
2023-05-14T01:40:36.170Z,42.3
2023-05-14T01:41:37.070Z,42.3
2023-05-14T01:42:38.119Z,41.9
2023-05-14T01:43:39.069Z,41.8
2023-05-14T01:44:40.000Z,42.2
2023-05-14T01:45:41.015Z,42.6
2023-05-14T01:46:42.111Z,43
2023-05-14T01:47:42.968Z,43.1
2023-05-14T01:48:44.004Z,43.5
2023-05-14T01:49:44.951Z,43.9
2023-05-14T01:50:45.982Z,44.3
2023-05-14T01:51:46.964Z,43.9
2023-05-14T01:52:47.969Z,43.5
2023-05-14T01:53:49.071Z,43.4
2023-05-14T01:54:49.961Z,43.4
2023-05-14T01:55:50.960Z,43.6
2023-05-14T01:56:52.106Z,43.3
2023-05-14T01:57:53.140Z,43.2
2023-05-14T01:58:53.962Z,43
2023-05-14T01:59:54.952Z,42.8
2023-05-14T02:00:55.942Z,42.6
2023-05-14T02:01:57.134Z,42.6
2023-05-14T02:02:58.091Z,42.5
2023-05-14T02:03:59.017Z,42.5
2023-05-14T02:05:00.041Z,42.4
2023-05-14T02:06:01.135Z,42.4
2023-05-14T02:07:02.287Z,42.3
2023-05-14T02:08:02.965Z,42.3
2023-05-14T02:09:03.961Z,42.2
2023-05-14T02:10:05.003Z,42.1
2023-05-14T02:11:06.030Z,42.1
2023-05-14T02:12:06.898Z,42.2
2023-05-14T02:13:07.981Z,42.2
2023-05-14T02:14:09.102Z,42.5
2023-05-14T02:15:10.366Z,43.1
2023-05-14T02:16:11.057Z,43.5
2023-05-14T02:17:12.106Z,43.9
2023-05-14T02:18:12.980Z,44.1
2023-05-14T02:19:14.067Z,44.2
2023-05-14T02:20:15.049Z,43.9
2023-05-14T02:21:15.969Z,43.6
2023-05-14T02:22:16.957Z,44.1
2023-05-14T02:23:17.964Z,44.4
2023-05-14T02:24:19.023Z,44.3
2023-05-14T02:25:19.978Z,44.3
2023-05-14T02:26:21.094Z,44.2
2023-05-14T02:27:22.053Z,44.3
2023-05-14T02:28:22.965Z,44.6
2023-05-14T02:29:24.020Z,44.9
2023-05-14T02:30:25.216Z,44.6
2023-05-14T02:31:26.059Z,44.8
2023-05-14T02:32:27.124Z,44.9
2023-05-14T02:33:28.075Z,45.1
2023-05-14T02:34:28.953Z,45.3
2023-05-14T02:35:29.925Z,45.3
2023-05-14T02:36:31.042Z,45.4
2023-05-14T02:37:32.035Z,44.7
2023-05-14T02:38:32.966Z,44.9
2023-05-14T02:39:33.989Z,44.9
2023-05-14T02:40:35.165Z,45
2023-05-14T02:41:35.982Z,44.9
2023-05-14T02:42:37.003Z,44.7
2023-05-14T02:43:38.037Z,44.7
2023-05-14T02:44:38.980Z,44.7
2023-05-14T02:45:39.967Z,44.7
2023-05-14T02:46:40.977Z,44.8
2023-05-14T02:47:41.993Z,45.1
2023-05-14T02:48:43.043Z,44.9
2023-05-14T02:49:43.971Z,44.7
2023-05-14T02:50:45.203Z,44.6
2023-05-14T02:51:45.990Z,44.6
2023-05-14T02:52:47.059Z,44.6
2023-05-14T02:53:48.056Z,44.6
2023-05-14T02:54:49.032Z,44.6
2023-05-14T02:55:50.003Z,44.6
2023-05-14T02:56:51.182Z,44.6
2023-05-14T02:57:52.018Z,44.9
2023-05-14T02:58:53.008Z,45
2023-05-14T02:59:53.949Z,44.9
2023-05-14T03:00:55.041Z,43.8
2023-05-14T03:01:56.100Z,44.4
2023-05-14T03:02:57.228Z,44.5
2023-05-14T03:03:58.062Z,44.4
2023-05-14T03:04:58.928Z,44.6
2023-05-14T03:06:00.086Z,44.7
2023-05-14T03:07:01.021Z,44.6
2023-05-14T03:08:02.031Z,44.5
2023-05-14T03:09:03.074Z,44.5
2023-05-14T03:10:04.008Z,45
2023-05-14T03:11:05.166Z,45.3
2023-05-14T03:12:06.065Z,45.4
2023-05-14T03:13:06.975Z,45.1
2023-05-14T03:14:07.969Z,45.3
2023-05-14T03:15:09.019Z,45.4
2023-05-14T03:16:10.122Z,45.2
2023-05-14T03:17:11.094Z,45.1
2023-05-14T03:18:11.986Z,45.1
2023-05-14T03:19:13.209Z,45
2023-05-14T03:20:13.975Z,45.2
2023-05-14T03:21:14.987Z,45.2
2023-05-14T03:22:15.995Z,45.3
2023-05-14T03:23:16.985Z,45.3
2023-05-14T03:24:18.025Z,45.6
2023-05-14T03:25:18.985Z,45.8
2023-05-14T03:26:19.950Z,45.7
2023-05-14T03:27:20.963Z,45.7
2023-05-14T03:28:22.044Z,45.7
2023-05-14T03:29:23.006Z,45.2
2023-05-14T03:30:24.192Z,45.5
2023-05-14T03:31:25.133Z,45.7
2023-05-14T03:32:26.102Z,45.5
2023-05-14T03:33:27.013Z,44.8
2023-05-14T03:34:28.042Z,45.1
2023-05-14T03:35:29.025Z,45.7
2023-05-14T03:36:30.004Z,45.9
2023-05-14T03:37:31.016Z,46
2023-05-14T03:38:31.974Z,46
2023-05-14T03:39:33.224Z,45.8
2023-05-14T03:40:34.183Z,45.6
2023-05-14T03:41:35.034Z,45.7
2023-05-14T03:42:36.050Z,45.7
2023-05-14T03:43:37.028Z,45.7
2023-05-14T03:44:37.968Z,45.7
2023-05-14T03:45:39.033Z,45.8
2023-05-14T03:46:40.051Z,45.8
2023-05-14T03:47:41.064Z,45.6
2023-05-14T03:48:42.201Z,45.6
2023-05-14T03:49:43.066Z,45.2
2023-05-14T03:50:44.001Z,45.2
2023-05-14T03:51:45.090Z,45.2
2023-05-14T03:52:46.030Z,45.1
2023-05-14T03:53:47.123Z,45
2023-05-14T03:54:48.071Z,44.9
2023-05-14T03:55:48.995Z,44.1
2023-05-14T03:56:50.007Z,44
2023-05-14T03:57:50.978Z,44.6
2023-05-14T03:58:52.051Z,44.8
2023-05-14T03:59:53.020Z,44.5
2023-05-14T04:00:54.225Z,44.6
2023-05-14T04:01:55.048Z,44.6
2023-05-14T04:02:56.097Z,44.8
2023-05-14T04:03:57.137Z,44.8
2023-05-14T04:04:58.044Z,44.8
2023-05-14T04:05:58.904Z,44.6
2023-05-14T04:07:00.051Z,44.5
2023-05-14T04:08:01.084Z,44.3
2023-05-14T04:09:02.250Z,44.1
2023-05-14T04:10:04.508Z,44
2023-05-14T04:11:04.150Z,43.8
2023-05-14T04:12:05.054Z,43.8
2023-05-14T04:13:06.046Z,43.9
2023-05-14T04:14:07.212Z,43.8
2023-05-14T04:15:08.067Z,43.7
2023-05-14T04:16:09.056Z,43.6
2023-05-14T04:17:10.088Z,43.5
2023-05-14T04:18:11.062Z,43.3
2023-05-14T04:19:12.068Z,43.3
2023-05-14T04:20:13.032Z,43.2
2023-05-14T04:21:13.991Z,43.1
2023-05-14T04:22:15.045Z,43.1
2023-05-14T04:23:16.064Z,42.7
2023-05-14T04:24:17.027Z,42.6
2023-05-14T04:25:18.205Z,42.6
2023-05-14T04:26:19.023Z,42.5
2023-05-14T04:27:20.051Z,42.3
2023-05-14T04:28:21.029Z,42.2
2023-05-14T04:29:22.226Z,42
2023-05-14T04:30:23.358Z,42
2023-05-14T04:31:24.149Z,42
2023-05-14T04:32:25.186Z,42.1
2023-05-14T04:33:26.069Z,42.1
2023-05-14T04:34:27.040Z,42
2023-05-14T04:35:27.995Z,41.7
2023-05-14T04:36:29.046Z,41.5
2023-05-14T04:37:30.007Z,41.5
2023-05-14T04:38:31.069Z,41.3
2023-05-14T04:39:32.059Z,41.2
2023-05-14T04:40:32.978Z,41.1
2023-05-14T04:41:34.084Z,41.3
2023-05-14T04:42:35.021Z,41.2
2023-05-14T04:43:36.098Z,41.1
2023-05-14T04:44:37.306Z,41
2023-05-14T04:45:38.108Z,40.9
2023-05-14T04:46:39.114Z,40.5
2023-05-14T04:47:40.112Z,40.8
2023-05-14T04:48:41.089Z,41
2023-05-14T04:49:42.100Z,41
2023-05-14T04:50:43.059Z,40.9
2023-05-14T04:51:44.090Z,40.5
2023-05-14T04:52:45.158Z,40.6
2023-05-14T04:53:46.057Z,40.4
2023-05-14T04:54:47.306Z,40.5
2023-05-14T04:55:47.996Z,40.5
2023-05-14T04:56:49.005Z,40.4
2023-05-14T04:57:50.038Z,40.6
2023-05-14T04:58:51.719Z,40.7
2023-05-14T04:59:53.190Z,40.7
2023-05-14T05:00:54.095Z,40.5
2023-05-14T05:01:55.000Z,40.4
2023-05-14T05:02:56.021Z,40.3
2023-05-14T05:03:57.555Z,40.1
2023-05-14T05:04:59.106Z,40.2
2023-05-14T05:06:00.034Z,40.4
2023-05-14T05:07:01.005Z,40.4
2023-05-14T05:08:02.099Z,40.3
2023-05-14T05:09:03.092Z,40.2
2023-05-14T05:10:04.097Z,39.4
2023-05-14T05:11:05.064Z,39.1
2023-05-14T05:12:06.080Z,38.8
2023-05-14T05:13:07.086Z,39.2
2023-05-14T05:14:08.086Z,39.5
2023-05-14T05:15:09.201Z,39.6
2023-05-14T05:16:10.146Z,39.6
2023-05-14T05:17:11.117Z,39.5
2023-05-14T05:18:12.204Z,39.5
2023-05-14T05:19:13.297Z,39.3
2023-05-14T05:20:14.062Z,39.1
2023-05-14T05:21:15.025Z,39.1
2023-05-14T05:22:16.149Z,39.1
2023-05-14T05:23:17.066Z,38.7
2023-05-14T05:24:18.015Z,38.3
2023-05-14T05:25:19.111Z,38.1
2023-05-14T05:26:20.130Z,38
2023-05-14T05:27:21.045Z,37.6
2023-05-14T05:28:22.161Z,37.6
2023-05-14T05:29:23.096Z,37.6
2023-05-14T05:30:24.410Z,37.3
2023-05-14T05:31:25.180Z,37.2
2023-05-14T05:32:26.132Z,37
2023-05-14T05:33:27.153Z,36.7
2023-05-14T05:34:28.132Z,36.8
2023-05-14T05:35:29.103Z,36.9
2023-05-14T05:36:30.146Z,37.2
2023-05-14T05:37:31.092Z,37.3
2023-05-14T05:38:32.050Z,37.1
2023-05-14T05:39:33.044Z,36.8
2023-05-14T05:40:34.148Z,37
2023-05-14T05:41:35.178Z,37
2023-05-14T05:42:36.094Z,37.1
2023-05-14T05:43:37.125Z,36.8
2023-05-14T05:44:38.271Z,36.6
2023-05-14T05:45:39.071Z,36.5
2023-05-14T05:46:40.174Z,36.4
2023-05-14T05:47:41.258Z,36.6
2023-05-14T05:48:42.082Z,37
2023-05-14T05:49:43.121Z,37.3
2023-05-14T05:50:44.192Z,37.5
2023-05-14T05:51:45.052Z,37.3
2023-05-14T05:52:46.191Z,36.6
2023-05-14T05:53:47.123Z,36.5
2023-05-14T05:54:48.121Z,36.3
2023-05-14T05:55:49.061Z,35.7
2023-05-14T05:56:50.061Z,36
2023-05-14T05:57:51.264Z,36.2
2023-05-14T05:58:52.104Z,36.1
2023-05-14T05:59:53.095Z,35.8
2023-05-14T06:00:54.171Z,35.6
2023-05-14T06:01:55.055Z,35.9
2023-05-14T06:02:56.055Z,35.6
2023-05-14T06:03:57.275Z,35.5
2023-05-14T06:04:58.723Z,35.5
2023-05-14T06:06:00.155Z,35.6
2023-05-14T06:07:01.136Z,35.5
2023-05-14T06:08:02.102Z,35.4
2023-05-14T06:09:03.050Z,35.4
2023-05-14T06:10:04.183Z,35.4
2023-05-14T06:11:05.333Z,35.3
2023-05-14T06:12:06.266Z,35.3
2023-05-14T06:13:07.230Z,35.5
2023-05-14T06:14:08.053Z,35.4
2023-05-14T06:15:09.065Z,35.1
2023-05-14T06:16:10.148Z,34.5
2023-05-14T06:17:11.124Z,34.7
2023-05-14T06:18:12.086Z,34.7
2023-05-14T06:19:13.183Z,34.6
2023-05-14T06:20:14.086Z,34.5
2023-05-14T06:21:15.203Z,34.3
2023-05-14T06:22:16.361Z,34.4
2023-05-14T06:23:17.177Z,34.4
2023-05-14T06:24:18.069Z,34.5
2023-05-14T06:25:21.904Z,34.5
2023-05-14T06:26:23.242Z,34.4
2023-05-14T06:27:24.127Z,34.2
2023-05-14T06:28:25.025Z,34.2
2023-05-14T06:29:26.064Z,34.4
2023-05-14T06:30:27.115Z,34.2
2023-05-14T06:31:28.221Z,34.3
2023-05-14T06:32:29.222Z,34.2
2023-05-14T06:33:30.165Z,34.1
2023-05-14T06:34:31.203Z,33.8
2023-05-14T06:35:32.262Z,33.6
2023-05-14T06:36:33.167Z,33.9
2023-05-14T06:37:34.117Z,34
2023-05-14T06:38:35.198Z,34
2023-05-14T06:39:36.061Z,34
2023-05-14T06:40:37.104Z,33.9
2023-05-14T06:41:38.123Z,33.9
2023-05-14T06:42:39.168Z,34
2023-05-14T06:43:40.052Z,34
2023-05-14T06:44:41.101Z,34
2023-05-14T06:45:42.123Z,34.4
2023-05-14T06:46:43.340Z,34.8
2023-05-14T06:47:44.182Z,34.4
2023-05-14T06:48:45.246Z,34.2
2023-05-14T06:49:46.308Z,34.4
2023-05-14T06:50:47.292Z,34.3
2023-05-14T06:51:48.301Z,34.1
2023-05-14T06:52:49.303Z,34
2023-05-14T06:53:49.994Z,33.6
2023-05-14T06:54:51.139Z,33.4
2023-05-14T06:55:52.120Z,33.8
2023-05-14T06:56:53.081Z,33.9
2023-05-14T06:57:54.161Z,33.6
2023-05-14T06:58:55.083Z,33.3
2023-05-14T06:59:56.082Z,33
2023-05-14T07:00:57.302Z,33.2
2023-05-14T07:01:58.141Z,32.7
2023-05-14T07:02:59.199Z,32.3
2023-05-14T07:04:00.190Z,32.5
2023-05-14T07:05:01.126Z,32.7
2023-05-14T07:06:02.304Z,32.6
2023-05-14T07:07:03.163Z,32.3
2023-05-14T07:08:04.199Z,32
2023-05-14T07:09:05.265Z,32.3
2023-05-14T07:10:06.257Z,32.6
2023-05-14T07:11:07.445Z,32.9
2023-05-14T07:12:08.105Z,32.3
2023-05-14T07:13:09.071Z,32.3
2023-05-14T07:14:10.223Z,32.4
2023-05-14T07:15:11.063Z,31.2
2023-05-14T07:16:12.150Z,31.8
2023-05-14T07:17:13.129Z,32.3
2023-05-14T07:18:14.152Z,32.8
2023-05-14T07:19:15.221Z,32.8
2023-05-14T07:20:16.341Z,32.5
2023-05-14T07:21:17.099Z,32.3
2023-05-14T07:22:18.146Z,32.2
2023-05-14T07:23:19.952Z,32.7
2023-05-14T07:24:20.222Z,32.7
2023-05-14T07:25:21.312Z,32.5
2023-05-14T07:26:22.226Z,32.3
2023-05-14T07:27:23.205Z,31.8
2023-05-14T07:28:24.136Z,32.4
2023-05-14T07:29:25.241Z,32.6
2023-05-14T07:30:26.390Z,32.6
2023-05-14T07:31:27.095Z,32.1
2023-05-14T07:32:28.209Z,31.2
2023-05-14T07:33:29.182Z,31.3
2023-05-14T07:34:30.120Z,31.2
2023-05-14T07:35:31.140Z,31.1
2023-05-14T07:36:32.119Z,31.4
2023-05-14T07:37:33.242Z,31.4
2023-05-14T07:38:34.104Z,31.4
2023-05-14T07:39:35.149Z,31.7
2023-05-14T07:40:36.110Z,31.8
2023-05-14T07:41:37.090Z,32.1
2023-05-14T07:42:38.286Z,31.8
2023-05-14T07:43:39.222Z,31.7
2023-05-14T07:44:40.320Z,31
2023-05-14T07:45:41.256Z,31.5
2023-05-14T07:46:42.266Z,31.6
2023-05-14T07:47:43.415Z,31.4
2023-05-14T07:48:44.330Z,31.2
2023-05-14T07:49:45.134Z,31.4
2023-05-14T07:50:46.143Z,31.3
2023-05-14T07:51:47.164Z,30.5
2023-05-14T07:52:48.123Z,30.1
2023-05-14T07:53:49.101Z,30
2023-05-14T07:54:50.702Z,29.8
2023-05-14T07:55:51.169Z,29.4
2023-05-14T07:56:52.104Z,29.8
2023-05-14T07:57:53.185Z,29.7
2023-05-14T07:58:54.201Z,29.6
2023-05-14T07:59:55.162Z,29.2
2023-05-14T08:00:56.243Z,29.1
2023-05-14T08:01:57.228Z,28.9
2023-05-14T08:02:58.494Z,28.9
2023-05-14T08:03:59.335Z,29.1
2023-05-14T08:05:00.265Z,29.4
2023-05-14T08:06:01.360Z,29.8
2023-05-14T08:07:02.321Z,30.1
2023-05-14T08:08:03.180Z,29.9
2023-05-14T08:09:04.279Z,30
2023-05-14T08:10:05.149Z,30
2023-05-14T08:11:06.161Z,30
2023-05-14T08:12:07.139Z,30
2023-05-14T08:13:08.186Z,30.6
2023-05-14T08:14:09.164Z,29.8
2023-05-14T08:15:10.284Z,28.8
2023-05-14T08:16:11.165Z,28.6
2023-05-14T08:17:12.255Z,28.4
2023-05-14T08:18:13.333Z,28.2
2023-05-14T08:19:14.525Z,28.6
2023-05-14T08:20:15.142Z,27.7
2023-05-14T08:21:16.702Z,26.9
2023-05-14T08:22:18.271Z,26.8
2023-05-14T08:23:19.194Z,27.3
2023-05-14T08:24:20.291Z,27.7
2023-05-14T08:25:21.366Z,27.5
2023-05-14T08:26:22.244Z,27.7
2023-05-14T08:27:23.311Z,27.5
2023-05-14T08:28:24.171Z,27.2
2023-05-14T08:29:25.184Z,26.8
2023-05-14T08:30:26.529Z,26.7
2023-05-14T08:31:27.301Z,27
2023-05-14T08:32:28.212Z,26.9
2023-05-14T08:33:29.309Z,26.5
2023-05-14T08:34:30.352Z,26.3
2023-05-14T08:35:31.263Z,27.1
2023-05-14T08:36:32.284Z,27.4
2023-05-14T08:37:33.180Z,27
2023-05-14T08:38:34.241Z,27
2023-05-14T08:39:35.296Z,26.7
2023-05-14T08:40:36.405Z,26.5
2023-05-14T08:41:37.202Z,26.5
2023-05-14T08:42:38.287Z,26.4
2023-05-14T08:43:39.262Z,26.4
2023-05-14T08:44:40.398Z,26
2023-05-14T08:45:41.427Z,26.1
2023-05-14T08:46:45.102Z,26.6
2023-05-14T08:47:46.326Z,26.6
2023-05-14T08:48:47.249Z,26.4
2023-05-14T08:49:48.425Z,25.7
2023-05-14T08:50:49.402Z,25.4
2023-05-14T08:51:50.214Z,25.3
2023-05-14T08:52:51.302Z,25.4
2023-05-14T08:53:52.227Z,25.6
2023-05-14T08:54:53.244Z,25.4
2023-05-14T08:55:54.301Z,25.3
2023-05-14T08:56:55.300Z,25.1
2023-05-14T08:57:56.282Z,24.8
2023-05-14T08:58:57.243Z,25.4
2023-05-14T08:59:58.283Z,25.5
2023-05-14T09:00:59.190Z,24.7
2023-05-14T09:02:00.137Z,24.3
2023-05-14T09:03:01.158Z,24.4
2023-05-14T09:04:02.315Z,24.7
2023-05-14T09:05:03.391Z,25
2023-05-14T09:06:04.119Z,25.4
2023-05-14T09:07:05.192Z,25.5
2023-05-14T09:08:06.245Z,25.4
2023-05-14T09:09:07.346Z,24.7
2023-05-14T09:10:08.191Z,25.3
2023-05-14T09:11:09.311Z,25.3
2023-05-14T09:12:10.203Z,25
2023-05-14T09:13:11.148Z,25.3
2023-05-14T09:14:12.204Z,25.2
2023-05-14T09:15:13.160Z,24.7
2023-05-14T09:16:14.347Z,24.3
2023-05-14T09:17:15.226Z,24.4
2023-05-14T09:18:16.537Z,24.6
2023-05-14T09:19:17.319Z,24.2
2023-05-14T09:20:18.165Z,24.1
2023-05-14T09:21:19.230Z,23.8
2023-05-14T09:22:20.247Z,23.6
2023-05-14T09:23:21.355Z,23.3
2023-05-14T09:24:22.304Z,23.2
2023-05-14T09:25:23.323Z,23.1
2023-05-14T09:26:24.222Z,23.1
2023-05-14T09:27:25.332Z,23.2
2023-05-14T09:28:26.348Z,23.6
2023-05-14T09:29:27.239Z,23.3
2023-05-14T09:30:28.361Z,23.3
2023-05-14T09:31:29.401Z,23.8
2023-05-14T09:32:30.380Z,24.2
2023-05-14T09:33:31.263Z,24
2023-05-14T09:34:32.131Z,24.1
2023-05-14T09:35:33.339Z,23.4
2023-05-14T09:36:34.403Z,23.1
2023-05-14T09:37:35.223Z,23.3
2023-05-14T09:38:36.154Z,23.6
2023-05-14T09:39:37.352Z,23.5
2023-05-14T09:40:38.306Z,23.2
2023-05-14T09:41:39.424Z,23.5
2023-05-14T09:42:40.142Z,23.6
2023-05-14T09:43:41.235Z,23
2023-05-14T09:44:42.256Z,23.4
2023-05-14T09:45:43.231Z,23.2
2023-05-14T09:46:44.193Z,22.9
2023-05-14T09:47:45.555Z,23.1
2023-05-14T09:48:46.307Z,22.8
2023-05-14T09:49:47.366Z,22.5
2023-05-14T09:50:48.372Z,22.2
2023-05-14T09:51:49.339Z,21.8
2023-05-14T09:52:50.223Z,21.8
2023-05-14T09:53:51.227Z,22
2023-05-14T09:54:52.296Z,22.2
2023-05-14T09:55:53.655Z,22.1
2023-05-14T09:56:55.937Z,21.8
2023-05-14T09:57:56.297Z,21.6
2023-05-14T09:58:57.221Z,21.8
2023-05-14T09:59:58.225Z,21.9
2023-05-14T10:00:59.225Z,21.6
2023-05-14T10:02:00.238Z,22.3
2023-05-14T10:03:01.287Z,22.1
2023-05-14T10:04:02.337Z,22.4
2023-05-14T10:05:03.243Z,21.7
2023-05-14T10:06:04.230Z,21.8
2023-05-14T10:07:05.259Z,22.3
2023-05-14T10:08:06.242Z,23.1
2023-05-14T10:09:07.383Z,22.4
2023-05-14T10:10:08.329Z,21.9
2023-05-14T10:11:09.384Z,22
2023-05-14T10:12:10.453Z,21.9
2023-05-14T10:13:11.181Z,21.6
2023-05-14T10:14:12.119Z,21.9
2023-05-14T10:15:13.198Z,22.1
2023-05-14T10:16:14.316Z,22
2023-05-14T10:17:15.491Z,21.8
2023-05-14T10:18:16.836Z,21.6
2023-05-14T10:19:18.627Z,22.2
2023-05-14T10:20:19.409Z,22.4
2023-05-14T10:21:20.345Z,22.8
2023-05-14T10:22:21.261Z,22.5
2023-05-14T10:23:22.194Z,21.6
2023-05-14T10:24:23.338Z,21.4
2023-05-14T10:25:24.179Z,21.7
2023-05-14T10:26:25.324Z,22
2023-05-14T10:27:26.244Z,21.7
2023-05-14T10:28:27.412Z,21.6
2023-05-14T10:29:28.343Z,21.5
2023-05-14T10:30:29.312Z,21.2
2023-05-14T10:31:30.622Z,20.8
2023-05-14T10:32:31.291Z,21
2023-05-14T10:33:32.245Z,21
2023-05-14T10:34:33.221Z,20.9
2023-05-14T10:35:34.136Z,20.4
2023-05-14T10:36:35.253Z,20.7
2023-05-14T10:37:36.220Z,21.4
2023-05-14T10:38:37.166Z,21.4
2023-05-14T10:39:38.324Z,21.1
2023-05-14T10:40:39.234Z,21.2
2023-05-14T10:41:40.241Z,21.2
2023-05-14T10:42:41.248Z,21
2023-05-14T10:43:42.323Z,21.2
2023-05-14T10:44:43.321Z,21.5
2023-05-14T10:45:44.268Z,21.6
2023-05-14T10:46:45.345Z,22.9
2023-05-14T10:47:46.299Z,23.2
2023-05-14T10:48:47.320Z,22.2
2023-05-14T10:49:48.455Z,22.6
2023-05-14T10:50:49.484Z,22.7
2023-05-14T10:51:50.209Z,21.8
2023-05-14T10:52:51.326Z,21.1
2023-05-14T10:53:52.452Z,20.7
2023-05-14T10:54:53.409Z,20.9
2023-05-14T10:55:54.444Z,20.7
2023-05-14T10:56:55.420Z,20.7
2023-05-14T10:57:56.349Z,21
2023-05-14T10:58:57.321Z,21.3
2023-05-14T10:59:58.391Z,21.3
2023-05-14T11:00:59.515Z,21.4
2023-05-14T11:02:00.412Z,21.4
2023-05-14T11:03:01.327Z,21.7
2023-05-14T11:04:02.335Z,22.1
2023-05-14T11:05:03.348Z,21.8
2023-05-14T11:06:04.210Z,22.3
2023-05-14T11:07:05.294Z,21.5
2023-05-14T11:08:06.294Z,20.9
2023-05-14T11:09:07.235Z,20.6
2023-05-14T11:10:08.336Z,20.4
2023-05-14T11:11:09.371Z,20.8
2023-05-14T11:12:10.444Z,20.3
2023-05-14T11:13:11.266Z,20.2
2023-05-14T11:14:12.285Z,20.4
2023-05-14T11:15:13.250Z,20.6
2023-05-14T11:16:22.381Z,20.7
2023-05-14T11:17:15.608Z,21.2
2023-05-14T11:18:16.452Z,21.7
2023-05-14T11:19:17.797Z,20.8
2023-05-14T11:20:19.282Z,20.7
2023-05-14T11:21:20.317Z,20.9
2023-05-14T11:22:21.338Z,20.9
2023-05-14T11:23:22.286Z,20.7
2023-05-14T11:24:23.368Z,20.7
2023-05-14T11:25:24.458Z,21.3
2023-05-14T11:26:25.447Z,21.8
2023-05-14T11:27:26.233Z,22.1
2023-05-14T11:28:27.236Z,21.8
2023-05-14T11:29:28.259Z,22.2
2023-05-14T11:30:29.393Z,22.2
2023-05-14T11:31:30.387Z,21.3
2023-05-14T11:32:31.250Z,20.5
2023-05-14T11:33:32.266Z,20.2
2023-05-14T11:34:33.483Z,20.9
2023-05-14T11:35:34.374Z,21.4
2023-05-14T11:36:35.387Z,20.6
2023-05-14T11:37:36.262Z,19.9
2023-05-14T11:38:37.287Z,20
2023-05-14T11:39:38.341Z,20
2023-05-14T11:40:40.894Z,19.5
2023-05-14T11:41:42.366Z,19.5
2023-05-14T11:42:43.306Z,19
2023-05-14T11:43:45.250Z,18.6
2023-05-14T11:44:46.333Z,18.5
2023-05-14T11:45:47.368Z,18.3
2023-05-14T11:46:48.223Z,18.4
2023-05-14T11:47:49.262Z,18.3
2023-05-14T11:48:50.199Z,18
2023-05-14T11:49:51.394Z,17.1
2023-05-14T11:50:52.394Z,16.9
2023-05-14T11:51:53.253Z,17
2023-05-14T11:52:54.285Z,16.8
2023-05-14T11:53:55.269Z,17.2
2023-05-14T11:54:56.263Z,17.4
2023-05-14T11:55:57.292Z,17.5
2023-05-14T11:56:58.386Z,17.1
2023-05-14T11:57:59.304Z,17.3
2023-05-14T11:59:00.456Z,18.1
2023-05-14T12:00:01.312Z,18.7
2023-05-14T12:01:02.282Z,18.2
2023-05-14T12:02:03.396Z,17.1
2023-05-14T12:03:04.494Z,16.7
2023-05-14T12:04:05.411Z,16.6
2023-05-14T12:05:09.429Z,17.1
2023-05-14T12:06:10.352Z,16.4
2023-05-14T12:07:11.466Z,17.3
2023-05-14T12:08:12.242Z,17
2023-05-14T12:09:13.221Z,16.7
2023-05-14T12:10:14.283Z,16.5
2023-05-14T12:11:15.242Z,16.6
2023-05-14T12:12:16.288Z,16.3
2023-05-14T12:13:17.446Z,16.3
2023-05-14T12:14:18.307Z,16.3
2023-05-14T12:15:19.344Z,16.8
2023-05-14T12:16:20.287Z,16.5
2023-05-14T12:17:21.416Z,16
2023-05-14T12:18:24.812Z,16
2023-05-14T12:19:23.441Z,16.2
2023-05-14T12:20:24.602Z,16.3
2023-05-14T12:21:25.233Z,16.3
2023-05-14T12:22:26.253Z,16.5
2023-05-14T12:23:27.322Z,16.3
2023-05-14T12:24:28.313Z,16.2
2023-05-14T12:25:29.301Z,16.4
2023-05-14T12:26:30.224Z,15.9
2023-05-14T12:27:31.368Z,15.9
2023-05-14T12:28:32.295Z,16
2023-05-14T12:29:33.282Z,16.3
2023-05-14T12:30:34.331Z,16
2023-05-14T12:31:35.299Z,16.8
2023-05-14T12:32:36.337Z,17.1
2023-05-14T12:33:37.319Z,17
2023-05-14T12:34:38.335Z,17.7
2023-05-14T12:35:39.339Z,18.2
2023-05-14T12:36:40.477Z,17.9
2023-05-14T12:37:41.397Z,17.4
2023-05-14T12:38:42.389Z,17.2
2023-05-14T12:39:43.247Z,16.5
2023-05-14T12:40:44.267Z,16.2
2023-05-14T12:41:45.325Z,16.3
2023-05-14T12:42:46.330Z,16.9
2023-05-14T12:43:47.302Z,16.8
2023-05-14T12:44:48.383Z,15.9
2023-05-14T12:45:49.266Z,15.9
2023-05-14T12:46:50.263Z,16
2023-05-14T12:47:51.366Z,16.1
2023-05-14T12:48:53.390Z,16.4
2023-05-14T12:49:53.406Z,16.7
2023-05-14T12:50:54.380Z,17.3
2023-05-14T12:52:03.412Z,17.6
2023-05-14T12:52:56.470Z,17.9
2023-05-14T12:53:57.297Z,18.1
2023-05-14T12:54:58.288Z,18.4
2023-05-14T12:55:59.331Z,17.9
2023-05-14T12:57:00.277Z,18
2023-05-14T12:58:01.392Z,17.8
2023-05-14T12:59:02.375Z,17.4
2023-05-14T13:00:03.353Z,17.5
2023-05-14T13:01:04.393Z,17.4
2023-05-14T13:02:05.393Z,17.2
2023-05-14T13:03:06.380Z,17
2023-05-14T13:04:07.394Z,16.9
2023-05-14T13:05:08.360Z,16.3
2023-05-14T13:06:09.363Z,16
2023-05-14T13:07:10.340Z,16.2
2023-05-14T13:08:11.345Z,16.1
2023-05-14T13:09:12.277Z,15.9
2023-05-14T13:10:13.332Z,15.8
2023-05-14T13:11:14.384Z,15.7
2023-05-14T13:12:15.407Z,15.5
2023-05-14T13:13:16.368Z,15.4
2023-05-14T13:14:19.629Z,14.5
2023-05-14T13:15:19.276Z,14.9
2023-05-14T13:16:20.413Z,14.9
2023-05-14T13:17:21.443Z,14.9
2023-05-14T13:18:22.329Z,15.2
2023-05-14T13:19:23.285Z,15.4
2023-05-14T13:20:24.570Z,15.3
2023-05-14T13:21:25.465Z,15.5
2023-05-14T13:22:26.398Z,15.4
2023-05-14T13:23:27.426Z,15.7
2023-05-14T13:24:28.306Z,16.4
2023-05-14T13:25:29.378Z,16.1
2023-05-14T13:26:30.362Z,16.1
2023-05-14T13:27:31.380Z,15.7
2023-05-14T13:28:32.435Z,15.2
2023-05-14T13:29:33.361Z,14.5
2023-05-14T13:30:34.298Z,14.6
2023-05-14T13:31:35.436Z,14.6
2023-05-14T13:32:36.369Z,13.6
2023-05-14T13:33:37.406Z,13.1
2023-05-14T13:34:38.330Z,13.3
2023-05-14T13:35:39.522Z,13.4
2023-05-14T13:36:40.451Z,13.8
2023-05-14T13:37:41.449Z,14.7